TAM3457 SBBR-SBGO
Flight info
| Callsign | TAM3457 |
|---|---|
| Flight time | 0h 34m |
| Altitude | 16000 |
| Route | SIREM |
| Aircraft | A319/M-SDE3FGHIRWY/LB1 |
Departure
| Time | 2026-04-20 20:19 |
|---|---|
| Airport | Presidente Juscelino Kubitschek International Airport (SBBR) |
Arrival
| Time | 2026-04-20 20:53 |
|---|---|
| Airport | Santa Genoveva International Airport (SBGO) |
| Time | Latitude | Longitude | Altitude | Speed | Heading |
|---|---|---|---|---|---|
| 2026-04-20 20:01 | -15.87271 | -47.91936 | 3469 ft | 0 kts | 356° |
| 2026-04-20 20:09 | -15.87291 | -47.91935 | 3472 ft | 4 kts | 3° |
| 2026-04-20 20:09 | -15.87317 | -47.91939 | 3472 ft | 4 kts | 29° |
| 2026-04-20 20:09 | -15.87332 | -47.91955 | 3470 ft | 2 kts | 85° |
| 2026-04-20 20:09 | -15.87332 | -47.91957 | 3471 ft | 0 kts | 85° |
| 2026-04-20 20:13 | -15.87329 | -47.91916 | 3472 ft | 6 kts | 85° |
| 2026-04-20 20:13 | -15.87326 | -47.91862 | 3472 ft | 9 kts | 87° |
| 2026-04-20 20:13 | -15.87321 | -47.91788 | 3472 ft | 11 kts | 86° |
| 2026-04-20 20:13 | -15.87316 | -47.91704 | 3472 ft | 12 kts | 85° |
| 2026-04-20 20:14 | -15.87306 | -47.91611 | 3471 ft | 14 kts | 79° |
| 2026-04-20 20:14 | -15.87221 | -47.91581 | 3472 ft | 16 kts | 358° |
| 2026-04-20 20:14 | -15.87091 | -47.91591 | 3472 ft | 19 kts | 355° |
| 2026-04-20 20:14 | -15.86954 | -47.91599 | 3472 ft | 18 kts | 356° |
| 2026-04-20 20:15 | -15.86825 | -47.91608 | 3470 ft | 21 kts | 356° |
| 2026-04-20 20:15 | -15.86683 | -47.91619 | 3471 ft | 17 kts | 356° |
| 2026-04-20 20:15 | -15.86553 | -47.91627 | 3469 ft | 16 kts | 356° |
| 2026-04-20 20:15 | -15.86481 | -47.91679 | 3466 ft | 15 kts | 271° |
| 2026-04-20 20:16 | -15.86489 | -47.91805 | 3468 ft | 20 kts | 266° |
| 2026-04-20 20:16 | -15.86500 | -47.91968 | 3469 ft | 22 kts | 266° |
| 2026-04-20 20:16 | -15.86511 | -47.92133 | 3469 ft | 24 kts | 266° |
| 2026-04-20 20:16 | -15.86521 | -47.92298 | 3469 ft | 24 kts | 266° |
| 2026-04-20 20:17 | -15.86532 | -47.92470 | 3468 ft | 26 kts | 265° |
| 2026-04-20 20:17 | -15.86543 | -47.92630 | 3465 ft | 20 kts | 266° |
| 2026-04-20 20:17 | -15.86544 | -47.92754 | 3462 ft | 14 kts | 297° |
| 2026-04-20 20:17 | -15.86442 | -47.92768 | 3461 ft | 15 kts | 360° |
| 2026-04-20 20:18 | -15.86360 | -47.92703 | 3460 ft | 13 kts | 58° |
| 2026-04-20 20:18 | -15.86351 | -47.92664 | 3461 ft | 4 kts | 86° |
| 2026-04-20 20:18 | -15.86338 | -47.92456 | 3465 ft | 61 kts | 85° |
| 2026-04-20 20:18 | -15.86295 | -47.91790 | 3464 ft | 122 kts | 86° |
| 2026-04-20 20:19 | -15.86230 | -47.90769 | 3671 ft | 148 kts | 89° |
| 2026-04-20 20:19 | -15.86166 | -47.89680 | 4204 ft | 153 kts | 87° |
| 2026-04-20 20:19 | -15.86276 | -47.88573 | 4681 ft | 160 kts | 118° |
| 2026-04-20 20:19 | -15.87190 | -47.87860 | 4867 ft | 182 kts | 166° |
| 2026-04-20 20:20 | -15.88523 | -47.87717 | 5121 ft | 206 kts | 172° |
| 2026-04-20 20:20 | -15.90022 | -47.87506 | 5360 ft | 228 kts | 169° |
| 2026-04-20 20:20 | -15.91685 | -47.87228 | 5684 ft | 255 kts | 169° |
| 2026-04-20 20:20 | -15.93511 | -47.86905 | 6247 ft | 274 kts | 169° |
| 2026-04-20 20:21 | -15.95411 | -47.86560 | 7073 ft | 279 kts | 168° |
| 2026-04-20 20:21 | -15.97309 | -47.86211 | 7971 ft | 281 kts | 169° |
| 2026-04-20 20:21 | -15.99249 | -47.85855 | 8889 ft | 284 kts | 169° |
| 2026-04-20 20:21 | -16.01212 | -47.85491 | 9811 ft | 287 kts | 169° |
| 2026-04-20 20:22 | -16.03225 | -47.85171 | 10380 ft | 303 kts | 177° |
| 2026-04-20 20:22 | -16.05311 | -47.85669 | 10729 ft | 323 kts | 208° |
| 2026-04-20 20:22 | -16.06970 | -47.87284 | 11354 ft | 334 kts | 237° |
| 2026-04-20 20:22 | -16.07701 | -47.89580 | 12062 ft | 341 kts | 265° |
| 2026-04-20 20:23 | -16.07513 | -47.92059 | 12805 ft | 346 kts | 277° |
| 2026-04-20 20:23 | -16.07357 | -47.94573 | 13534 ft | 349 kts | 269° |
| 2026-04-20 20:23 | -16.07558 | -47.97077 | 14170 ft | 353 kts | 256° |
| 2026-04-20 20:23 | -16.08428 | -47.99466 | 14788 ft | 355 kts | 242° |
| 2026-04-20 20:24 | -16.09699 | -48.01679 | 15414 ft | 357 kts | 237° |
| 2026-04-20 20:24 | -16.10963 | -48.03920 | 15837 ft | 361 kts | 239° |
| 2026-04-20 20:24 | -16.12175 | -48.06209 | 15958 ft | 361 kts | 240° |
| 2026-04-20 20:24 | -16.13359 | -48.08520 | 15979 ft | 361 kts | 241° |
| 2026-04-20 20:25 | -16.14517 | -48.10801 | 15971 ft | 361 kts | 241° |
| 2026-04-20 20:25 | -16.15698 | -48.13110 | 15963 ft | 361 kts | 241° |
| 2026-04-20 20:25 | -16.16891 | -48.15412 | 15954 ft | 361 kts | 240° |
| 2026-04-20 20:25 | -16.18090 | -48.17703 | 15954 ft | 361 kts | 240° |
| 2026-04-20 20:26 | -16.19301 | -48.19998 | 15945 ft | 361 kts | 240° |
| 2026-04-20 20:26 | -16.20508 | -48.22284 | 15949 ft | 361 kts | 240° |
| 2026-04-20 20:26 | -16.21701 | -48.24553 | 15951 ft | 361 kts | 240° |
| 2026-04-20 20:26 | -16.22905 | -48.26846 | 15948 ft | 361 kts | 240° |
| 2026-04-20 20:27 | -16.24166 | -48.29102 | 15954 ft | 360 kts | 234° |
| 2026-04-20 20:27 | -16.25757 | -48.31105 | 15954 ft | 359 kts | 226° |
| 2026-04-20 20:27 | -16.27438 | -48.33024 | 15953 ft | 359 kts | 226° |
| 2026-04-20 20:27 | -16.29121 | -48.34946 | 15950 ft | 359 kts | 226° |
| 2026-04-20 20:28 | -16.30233 | -48.36219 | 15948 ft | 359 kts | 226° |
| 2026-04-20 20:28 | -16.32482 | -48.38795 | 15953 ft | 359 kts | 226° |
| 2026-04-20 20:28 | -16.34142 | -48.40692 | 15953 ft | 359 kts | 226° |
| 2026-04-20 20:28 | -16.35830 | -48.42616 | 15953 ft | 359 kts | 226° |
| 2026-04-20 20:29 | -16.37514 | -48.44536 | 15944 ft | 359 kts | 226° |
| 2026-04-20 20:29 | -16.39196 | -48.46464 | 15953 ft | 359 kts | 227° |
| 2026-04-20 20:29 | -16.40871 | -48.48391 | 15959 ft | 359 kts | 227° |
| 2026-04-20 20:29 | -16.42555 | -48.50325 | 15959 ft | 359 kts | 226° |
| 2026-04-20 20:30 | -16.44218 | -48.52233 | 15957 ft | 359 kts | 226° |
| 2026-04-20 20:30 | -16.45903 | -48.54166 | 15958 ft | 360 kts | 226° |
| 2026-04-20 20:30 | -16.47590 | -48.56103 | 15955 ft | 360 kts | 226° |
| 2026-04-20 20:30 | -16.49270 | -48.58036 | 15959 ft | 360 kts | 226° |
| 2026-04-20 20:31 | -16.50954 | -48.59971 | 15957 ft | 360 kts | 227° |
| 2026-04-20 20:31 | -16.52616 | -48.61884 | 15953 ft | 360 kts | 227° |
| 2026-04-20 20:31 | -16.54175 | -48.63929 | 15952 ft | 361 kts | 236° |
| 2026-04-20 20:31 | -16.55308 | -48.66263 | 15948 ft | 362 kts | 249° |
| 2026-04-20 20:32 | -16.55987 | -48.68795 | 15961 ft | 363 kts | 256° |
| 2026-04-20 20:32 | -16.56577 | -48.71357 | 15959 ft | 363 kts | 256° |
| 2026-04-20 20:32 | -16.57174 | -48.73921 | 15947 ft | 363 kts | 255° |
| 2026-04-20 20:32 | -16.57778 | -48.76485 | 15955 ft | 363 kts | 255° |
| 2026-04-20 20:33 | -16.58388 | -48.79044 | 15954 ft | 363 kts | 255° |
| 2026-04-20 20:33 | -16.58990 | -48.81571 | 15950 ft | 363 kts | 255° |
| 2026-04-20 20:33 | -16.59598 | -48.84129 | 15957 ft | 363 kts | 255° |
| 2026-04-20 20:33 | -16.60200 | -48.86693 | 15957 ft | 363 kts | 255° |
| 2026-04-20 20:34 | -16.60796 | -48.89259 | 15964 ft | 363 kts | 255° |
| 2026-04-20 20:34 | -16.61391 | -48.91821 | 15964 ft | 363 kts | 255° |
| 2026-04-20 20:34 | -16.61981 | -48.94358 | 15970 ft | 363 kts | 255° |
| 2026-04-20 20:34 | -16.62553 | -48.96925 | 15987 ft | 364 kts | 259° |
| 2026-04-20 20:35 | -16.62715 | -48.99556 | 15995 ft | 365 kts | 272° |
| 2026-04-20 20:35 | -16.62519 | -49.01301 | 16000 ft | 365 kts | 280° |
| 2026-04-20 20:35 | -16.61764 | -49.03832 | 16002 ft | 366 kts | 294° |
| 2026-04-20 20:35 | -16.60535 | -49.06158 | 16007 ft | 366 kts | 300° |
| 2026-04-20 20:36 | -16.59248 | -49.08449 | 16019 ft | 366 kts | 300° |
| 2026-04-20 20:36 | -16.57957 | -49.10747 | 16015 ft | 366 kts | 300° |
| 2026-04-20 20:36 | -16.56669 | -49.13041 | 16028 ft | 366 kts | 300° |
| 2026-04-20 20:36 | -16.55391 | -49.15314 | 16015 ft | 353 kts | 300° |
| 2026-04-20 20:37 | -16.54068 | -49.17334 | 15903 ft | 331 kts | 313° |
| 2026-04-20 20:37 | -16.52335 | -49.18798 | 15779 ft | 311 kts | 331° |
| 2026-04-20 20:37 | -16.50382 | -49.19606 | 15635 ft | 293 kts | 348° |
| 2026-04-20 20:37 | -16.48406 | -49.19788 | 15397 ft | 286 kts | 5° |
| 2026-04-20 20:38 | -16.46471 | -49.19382 | 15209 ft | 282 kts | 22° |
| 2026-04-20 20:38 | -16.44744 | -49.18448 | 15155 ft | 279 kts | 38° |
| 2026-04-20 20:38 | -16.43325 | -49.17077 | 15134 ft | 277 kts | 52° |
| 2026-04-20 20:38 | -16.42309 | -49.15397 | 14751 ft | 273 kts | 68° |
| 2026-04-20 20:39 | -16.41779 | -49.13518 | 14313 ft | 269 kts | 83° |
| 2026-04-20 20:39 | -16.41741 | -49.11584 | 13940 ft | 267 kts | 98° |
| 2026-04-20 20:39 | -16.42168 | -49.09738 | 13480 ft | 264 kts | 112° |
| 2026-04-20 20:39 | -16.42940 | -49.08004 | 12996 ft | 262 kts | 118° |
| 2026-04-20 20:40 | -16.43827 | -49.06351 | 12528 ft | 260 kts | 121° |
| 2026-04-20 20:40 | -16.44749 | -49.04736 | 12068 ft | 258 kts | 121° |
| 2026-04-20 20:40 | -16.45677 | -49.03130 | 11609 ft | 257 kts | 121° |
| 2026-04-20 20:40 | -16.46595 | -49.01533 | 11169 ft | 255 kts | 121° |
| 2026-04-20 20:41 | -16.47486 | -48.99965 | 10739 ft | 253 kts | 121° |
| 2026-04-20 20:41 | -16.48538 | -48.98501 | 10301 ft | 251 kts | 134° |
| 2026-04-20 20:41 | -16.49871 | -48.97338 | 9862 ft | 250 kts | 147° |
| 2026-04-20 20:41 | -16.51425 | -48.96539 | 9360 ft | 248 kts | 161° |
| 2026-04-20 20:42 | -16.53111 | -48.96156 | 8899 ft | 247 kts | 175° |
| 2026-04-20 20:42 | -16.54823 | -48.96212 | 8466 ft | 246 kts | 188° |
| 2026-04-20 20:42 | -16.56446 | -48.96689 | 8017 ft | 245 kts | 202° |
| 2026-04-20 20:42 | -16.57925 | -48.97568 | 7560 ft | 245 kts | 216° |
| 2026-04-20 20:43 | -16.59163 | -48.98779 | 7108 ft | 244 kts | 230° |
| 2026-04-20 20:43 | -16.60092 | -49.00263 | 6668 ft | 244 kts | 243° |
| 2026-04-20 20:43 | -16.60658 | -49.01924 | 6242 ft | 243 kts | 257° |
| 2026-04-20 20:43 | -16.60825 | -49.03670 | 6021 ft | 243 kts | 270° |
| 2026-04-20 20:44 | -16.60595 | -49.05416 | 6005 ft | 244 kts | 284° |
| 2026-04-20 20:44 | -16.59997 | -49.07058 | 6008 ft | 246 kts | 295° |
| 2026-04-20 20:44 | -16.59130 | -49.08717 | 6017 ft | 274 kts | 299° |
| 2026-04-20 20:44 | -16.58431 | -49.10518 | 6017 ft | 261 kts | 287° |
| 2026-04-20 20:45 | -16.57895 | -49.12272 | 6019 ft | 247 kts | 287° |
| 2026-04-20 20:45 | -16.57381 | -49.13930 | 6023 ft | 233 kts | 287° |
| 2026-04-20 20:45 | -16.56898 | -49.15485 | 6026 ft | 218 kts | 287° |
| 2026-04-20 20:45 | -16.56444 | -49.16939 | 6022 ft | 203 kts | 287° |
| 2026-04-20 20:46 | -16.56017 | -49.18310 | 6031 ft | 198 kts | 287° |
| 2026-04-20 20:46 | -16.55593 | -49.19677 | 6034 ft | 203 kts | 287° |
| 2026-04-20 20:46 | -16.55158 | -49.21084 | 6032 ft | 204 kts | 287° |
| 2026-04-20 20:46 | -16.54722 | -49.22494 | 6028 ft | 204 kts | 287° |
| 2026-04-20 20:47 | -16.54288 | -49.23901 | 6035 ft | 204 kts | 287° |
| 2026-04-20 20:47 | -16.53851 | -49.25317 | 6013 ft | 205 kts | 287° |
| 2026-04-20 20:47 | -16.53408 | -49.26755 | 5632 ft | 213 kts | 287° |
| 2026-04-20 20:47 | -16.53184 | -49.28243 | 5415 ft | 205 kts | 259° |
| 2026-04-20 20:48 | -16.53812 | -49.29525 | 5102 ft | 200 kts | 219° |
| 2026-04-20 20:48 | -16.55031 | -49.30151 | 4865 ft | 193 kts | 192° |
| 2026-04-20 20:48 | -16.56380 | -49.30195 | 4414 ft | 201 kts | 171° |
| 2026-04-20 20:48 | -16.57735 | -49.29803 | 4102 ft | 209 kts | 157° |
| 2026-04-20 20:49 | -16.58968 | -49.29023 | 3872 ft | 203 kts | 140° |
| 2026-04-20 20:49 | -16.59869 | -49.27996 | 3786 ft | 181 kts | 126° |
| 2026-04-20 20:49 | -16.60475 | -49.26926 | 3702 ft | 164 kts | 121° |
| 2026-04-20 20:49 | -16.61037 | -49.25925 | 3704 ft | 154 kts | 121° |
| 2026-04-20 20:50 | -16.61674 | -49.25125 | 3663 ft | 140 kts | 153° |
| 2026-04-20 20:50 | -16.62604 | -49.24951 | 3684 ft | 138 kts | 188° |
| 2026-04-20 20:50 | -16.63379 | -49.25495 | 3658 ft | 139 kts | 232° |
| 2026-04-20 20:50 | -16.63621 | -49.26463 | 3566 ft | 143 kts | 274° |
| 2026-04-20 20:51 | -16.63188 | -49.27378 | 3564 ft | 144 kts | 316° |
| 2026-04-20 20:51 | -16.62254 | -49.27719 | 3525 ft | 147 kts | 7° |
| 2026-04-20 20:51 | -16.61446 | -49.27157 | 3306 ft | 142 kts | 63° |
| 2026-04-20 20:51 | -16.61306 | -49.26178 | 3143 ft | 138 kts | 97° |
| 2026-04-20 20:52 | -16.61497 | -49.25205 | 2932 ft | 136 kts | 112° |
| 2026-04-20 20:52 | -16.61929 | -49.24334 | 2778 ft | 134 kts | 122° |
| 2026-04-20 20:52 | -16.62407 | -49.23509 | 2560 ft | 134 kts | 123° |
| 2026-04-20 20:52 | -16.62869 | -49.22690 | 2432 ft | 121 kts | 123° |
| 2026-04-20 20:53 | -16.63231 | -49.22050 | 2431 ft | 79 kts | 120° |
| 2026-04-20 20:53 | -16.63402 | -49.21746 | 2434 ft | 33 kts | 120° |
| 2026-04-20 20:53 | -16.63453 | -49.21621 | 2436 ft | 18 kts | 108° |
| 2026-04-20 20:53 | -16.63470 | -49.21492 | 2438 ft | 18 kts | 91° |
| 2026-04-20 20:54 | -16.63465 | -49.21402 | 2438 ft | 9 kts | 55° |
| 2026-04-20 20:54 | -16.63405 | -49.21412 | 2437 ft | 11 kts | 316° |
| 2026-04-20 20:54 | -16.63362 | -49.21482 | 2435 ft | 12 kts | 302° |
| 2026-04-20 20:54 | -16.63313 | -49.21566 | 2433 ft | 15 kts | 301° |
| 2026-04-20 20:55 | -16.63258 | -49.21662 | 2436 ft | 17 kts | 301° |
| 2026-04-20 20:55 | -16.63207 | -49.21753 | 2434 ft | 14 kts | 300° |
| 2026-04-20 20:55 | -16.63155 | -49.21845 | 2432 ft | 16 kts | 301° |
| 2026-04-20 20:55 | -16.63097 | -49.21951 | 2431 ft | 16 kts | 300° |
| 2026-04-20 20:56 | -16.63021 | -49.22035 | 2433 ft | 12 kts | 353° |
| 2026-04-20 20:56 | -16.62980 | -49.21963 | 2433 ft | 13 kts | 80° |
| 2026-04-20 20:56 | -16.62959 | -49.21865 | 2430 ft | 15 kts | 77° |
| 2026-04-20 20:56 | -16.62939 | -49.21764 | 2434 ft | 14 kts | 78° |
| 2026-04-20 20:57 | -16.62922 | -49.21666 | 2435 ft | 11 kts | 92° |
| 2026-04-20 20:57 | -16.62978 | -49.21614 | 2434 ft | 12 kts | 163° |
| 2026-04-20 20:57 | -16.62988 | -49.21556 | 2431 ft | 9 kts | 61° |
| 2026-04-20 20:57 | -16.62976 | -49.21532 | 2434 ft | 0 kts | 64° |